Time;durP1;ratioP1;P1;durP2;ratioP2;P2;SDS_P1;SDS_P2;PMS_P1;PMS_P2;Temp;Humidity;BMP_temperature;BMP_pressure;BME280_temperature;BME280_humidity;BME280_pressure;Samples;Min_cycle;Max_cycle;Signal;HPM_P1;HPM_P2
2021/03/24 00:01:58;;;;;;;;;;;;;;;-0.94;58.19;100213.92;1639914;85;21536;-83
2021/03/24 00:04:26;;;;;;;1.60;0.70;;;;;;;-0.93;57.92;100212.98;1655955;85;21055;-85
2021/03/24 00:06:53;;;;;;;1.13;0.87;;;;;;;-1.00;58.21;100214.78;1695713;83;21412;-84
2021/03/24 00:09:21;;;;;;;6.83;2.43;;;;;;;-1.01;58.29;100224.87;1694904;83;21366;-84
2021/03/24 00:11:50;;;;;;;1.17;0.90;;;;;;;-1.01;58.13;100223.56;1690994;84;21132;-84
2021/03/24 00:14:17;;;;;;;5.43;1.43;;;;;;;-1.02;58.20;100227.14;1646024;85;21343;-84
2021/03/24 00:16:45;;;;;;;3.77;1.43;;;;;;;-1.06;58.42;100226.16;1655708;85;21391;-84
2021/03/24 00:19:14;;;;;;;2.57;2.03;;;;;;;-1.08;58.26;100229.38;1622785;86;21225;-84
2021/03/24 00:21:41;;;;;;;1.40;0.93;;;;;;;-1.06;58.37;100231.40;1629337;86;21660;-84
2021/03/24 00:24:09;;;;;;;3.23;1.40;;;;;;;-1.08;58.48;100235.44;1621818;84;21485;-85
2021/03/24 00:26:36;;;;;;;2.27;0.90;;;;;;;-1.04;58.32;100234.73;1648227;85;21738;-86
2021/03/24 00:29:05;;;;;;;2.30;1.30;;;;;;;-1.09;58.23;100242.08;1648007;87;21318;-83
2021/03/24 00:31:35;;;;;;;2.03;1.40;;;;;;;-1.00;58.06;100244.00;1639312;87;21764;-83
2021/03/24 00:34:02;;;;;;;1.17;1.03;;;;;;;-1.05;58.44;100245.67;1663310;81;21090;-82
2021/03/24 00:36:29;;;;;;;2.70;0.80;;;;;;;-1.02;58.49;100243.30;1667083;83;21503;-82
2021/03/24 00:38:58;;;;;;;1.60;1.17;;;;;;;-1.04;58.19;100243.40;1678188;85;21207;-81
2021/03/24 00:41:25;;;;;;;2.13;1.57;;;;;;;-1.04;58.21;100244.71;1671015;85;21179;-83
2021/03/24 00:43:52;;;;;;;2.73;2.13;;;;;;;-1.03;58.39;100242.47;1665444;85;21646;-81
2021/03/24 00:46:20;;;;;;;1.70;1.57;;;;;;;-0.99;57.87;100246.52;1674277;84;21516;-82
2021/03/24 00:48:47;;;;;;;1.13;1.00;;;;;;;-1.00;58.04;100257.09;1677287;85;22400;-82
2021/03/24 00:51:15;;;;;;;3.37;1.17;;;;;;;-0.97;57.89;100262.10;1662243;85;21261;-83
2021/03/24 00:53:43;;;;;;;1.93;0.83;;;;;;;-0.96;57.85;100256.39;1669435;85;21385;-83
2021/03/24 00:56:11;;;;;;;2.03;1.47;;;;;;;-0.94;57.69;100249.25;1672697;84;21109;-81
2021/03/24 00:58:42;;;;;;;2.43;1.27;;;;;;;-1.00;57.53;100259.70;1674895;85;21205;-82
2021/03/24 01:01:11;;;;;;;2.93;0.83;;;;;;;-0.98;57.70;100257.80;1670100;85;21268;-82
2021/03/24 01:03:40;;;;;;;1.83;1.00;;;;;;;-1.64;57.77;100169.46;1675457;85;21232;-82
2021/03/24 01:06:08;;;;;;;1.53;0.67;;;;;;;-1.07;57.90;100263.75;1677268;84;21362;-85
2021/03/24 01:08:36;;;;;;;3.13;0.70;;;;;;;-1.07;57.77;100265.89;1665792;85;21352;-85
2021/03/24 01:11:04;;;;;;;1.13;0.83;;;;;;;-1.12;57.67;100274.55;1671303;85;21473;-84
2021/03/24 01:13:32;;;;;;;1.57;1.13;;;;;;;-1.11;57.93;100287.14;1667642;85;21192;-81
2021/03/24 01:16:00;;;;;;;1.07;0.80;;;;;;;-1.13;57.76;100287.28;1672871;85;21136;-83
2021/03/24 01:18:30;;;;;;;0.97;0.87;;;;;;;-1.15;57.79;100285.23;1659458;85;21631;-83
2021/03/24 01:20:57;;;;;;;3.10;1.70;;;;;;;-1.17;57.82;100289.74;1673290;85;21473;-84
2021/03/24 01:23:24;;;;;;;;;;;;;;;-1.23;58.33;100294.13;1671936;85;21734;-82
2021/03/24 01:25:51;;;;;;;1.67;1.07;;;;;;;-1.26;58.44;100290.42;1668261;86;20170;-83
2021/03/24 01:28:24;;;;;;;3.03;1.37;;;;;;;-1.30;58.27;100292.45;1669843;85;21735;-81
2021/03/24 01:30:57;;;;;;;1.30;0.80;;;;;;;-1.37;58.55;100301.69;1662104;85;21235;-83
2021/03/24 01:33:27;;;;;;;2.30;0.80;;;;;;;-1.35;58.71;100295.88;1658041;85;22157;-82
2021/03/24 01:35:56;;;;;;;2.43;0.63;;;;;;;-1.34;58.61;100304.55;1672892;85;21243;-81
2021/03/24 01:38:23;;;;;;;1.67;1.40;;;;;;;-1.33;58.50;100304.92;1672945;84;21423;-81
2021/03/24 01:40:59;;;;;;;1.80;1.30;;;;;;;-1.35;58.49;100298.48;1667949;85;21379;-82
2021/03/24 01:43:31;;;;;;;1.83;1.07;;;;;;;-1.31;58.39;100299.10;1669748;85;21216;-80
2021/03/24 01:46:22;;;;;;;1.43;0.87;;;;;;;-1.32;58.47;100303.47;1691639;83;21243;-82
2021/03/24 01:49:01;;;;;;;0.90;0.57;;;;;;;-1.30;58.57;100304.22;1673701;83;21362;-81
2021/03/24 01:51:45;;;;;;;2.40;1.00;;;;;;;-1.32;58.74;100306.57;1696749;83;21334;-81
2021/03/24 01:54:18;;;;;;;1.57;0.83;;;;;;;-1.33;58.79;100319.30;1691530;83;22161;-82
2021/03/24 01:56:49;;;;;;;2.30;1.30;;;;;;;-1.39;59.17;100319.28;1654002;84;21288;-81
2021/03/24 01:59:16;;;;;;;1.27;0.90;;;;;;;-1.40;59.04;100320.20;1640297;86;21408;-81
2021/03/24 02:01:44;;;;;;;3.47;1.33;;;;;;;-1.42;58.93;100320.31;1654297;84;21088;-80
2021/03/24 02:04:12;;;;;;;3.50;0.77;;;;;;;-1.45;58.78;100314.02;1670609;84;21527;-82
2021/03/24 02:06:52;;;;;;;0.70;0.60;;;;;;;-1.45;58.90;100314.47;1675587;84;21258;-81
2021/03/24 02:10:12;;;;;;;0.83;0.70;;;;;;;-1.38;58.86;100307.85;1803423;78;23650;-82
2021/03/24 02:12:47;;;;;;;0.70;0.70;;;;;;;-1.43;58.83;100318.66;1723182;80;21223;-81
2021/03/24 02:15:25;;;;;;;3.60;0.97;;;;;;;-3.11;59.18;100046.46;1705415;82;21181;-82
2021/03/24 02:17:54;;;;;;;2.60;0.83;;;;;;;-1.48;59.03;100318.16;1703508;82;21196;-83
2021/03/24 02:20:28;;;;;;;0.73;0.70;;;;;;;-1.46;59.09;100329.81;1707066;82;21245;-82
2021/03/24 02:23:07;;;;;;;1.07;0.83;;;;;;;-1.43;59.05;100324.34;1702031;82;21232;-81
2021/03/24 02:25:51;;;;;;;0.80;0.80;;;;;;;-1.50;59.56;100326.58;1711373;83;21237;-80
2021/03/24 02:28:20;;;;;;;1.07;0.77;;;;;;;-1.48;59.32;100326.00;1683260;83;21229;-80
2021/03/24 02:30:50;;;;;;;4.47;0.77;;;;;;;-1.54;59.43;100329.06;1683399;83;21448;-82
2021/03/24 02:33:22;;;;;;;1.03;0.67;;;;;;;-1.54;59.45;100336.91;1709585;81;21144;-80
2021/03/24 02:35:55;;;;;;;1.37;1.03;;;;;;;-1.51;59.27;100328.82;1755184;77;21159;-80
2021/03/24 02:38:25;;;;;;;3.13;1.03;;;;;;;-1.56;59.52;100327.03;1742500;77;21129;-81
2021/03/24 02:40:54;;;;;;;3.57;0.80;;;;;;;-1.51;59.34;100334.05;1727152;79;21198;-85
2021/03/24 02:43:22;;;;;;;1.30;0.63;;;;;;;-1.49;59.32;100334.77;1719027;81;21337;-83
2021/03/24 02:45:50;;;;;;;1.63;1.53;;;;;;;-1.49;59.50;100347.02;1716275;81;21144;-81
2021/03/24 02:48:29;;;;;;;2.47;1.57;;;;;;;-1.43;59.46;100345.26;1692524;82;21357;-84
2021/03/24 02:51:02;;;;;;;2.90;1.07;;;;;;;-1.42;59.23;100333.87;1725336;81;21745;-84
2021/03/24 02:53:31;;;;;;;1.73;1.10;;;;;;;-1.39;59.22;100342.81;1718317;81;21763;-84
2021/03/24 02:56:03;;;;;;;2.17;1.40;;;;;;;-1.37;59.19;100345.66;1712025;81;22324;-84
2021/03/24 02:58:31;;;;;;;3.97;1.47;;;;;;;-1.37;59.32;100344.36;1687143;83;21195;-84
2021/03/24 03:01:07;;;;;;;4.30;1.10;;;;;;;-1.36;59.12;100346.48;1724809;81;21142;-83
2021/03/24 03:03:46;;;;;;;1.60;1.50;;;;;;;-1.37;59.17;100343.53;1727936;81;21199;-85
2021/03/24 03:06:16;;;;;;;5.67;1.00;;;;;;;-1.40;59.61;100349.80;1746914;80;21182;-85
2021/03/24 03:08:55;;;;;;;1.90;0.90;;;;;;;-1.39;59.28;100354.09;1720326;81;21241;-86
2021/03/24 03:11:34;;;;;;;2.67;1.30;;;;;;;-1.46;59.33;100347.63;1722075;81;21368;-84
2021/03/24 03:14:09;;;;;;;2.13;1.57;;;;;;;-1.43;59.30;100351.34;1738022;80;21495;-83
2021/03/24 03:16:48;;;;;;;1.17;0.80;;;;;;;-1.41;59.34;100350.76;1718888;81;21166;-83
2021/03/24 03:19:22;;;;;;;1.30;1.20;;;;;;;-1.41;59.34;100345.53;1717997;81;21441;-85
2021/03/24 03:21:54;;;;;;;1.37;1.00;;;;;;;-1.39;59.28;100351.96;1731830;80;21730;-87
2021/03/24 03:24:27;;;;;;;4.03;1.20;;;;;;;-1.35;59.38;100361.73;1737090;80;21142;-86
2021/03/24 03:26:57;;;;;;;1.67;1.30;;;;;;;-1.36;59.27;100359.56;1716694;81;21355;-86
2021/03/24 03:29:26;;;;;;;1.87;1.10;;;;;;;-1.35;59.48;100356.50;1722618;81;21689;-85
2021/03/24 03:31:57;;;;;;;1.93;1.20;;;;;;;-1.35;59.32;100359.11;1712516;82;21162;-85
2021/03/24 03:34:26;;;;;;;1.37;0.80;;;;;;;-1.40;59.69;100361.56;1689528;83;21284;-84
2021/03/24 03:36:56;;;;;;;1.17;0.87;;;;;;;-1.35;59.32;100356.50;1673206;83;21229;-84
2021/03/24 03:39:27;;;;;;;2.80;1.10;;;;;;;-3.00;59.42;100098.70;1652480;85;21850;-83
2021/03/24 03:41:58;;;;;;;3.53;1.00;;;;;;;-1.34;59.42;100366.82;1669962;84;21815;-83
2021/03/24 03:44:25;;;;;;;1.20;1.10;;;;;;;-1.36;59.56;100373.95;1654680;83;21090;-83
2021/03/24 03:46:58;;;;;;;1.67;1.30;;;;;;;-1.74;59.63;100315.28;1730960;81;21191;-82
2021/03/24 03:49:25;;;;;;;1.40;0.90;;;;;;;-1.41;59.50;100378.21;1723704;81;21210;-83
2021/03/24 03:52:12;;;;;;;0.80;0.80;;;;;;;-1.40;59.66;100369.89;1689361;82;21228;-83
2021/03/24 03:54:57;;;;;;;2.67;1.37;;;;;;;-1.43;59.48;100379.25;1718774;81;21206;-84
2021/03/24 03:57:51;;;;;;;3.27;1.57;;;;;;;-1.43;59.79;100375.33;1698875;82;21719;-85
2021/03/24 04:00:26;;;;;;;4.03;1.93;;;;;;;-1.48;59.60;100373.53;1680355;83;21368;-83
2021/03/24 04:03:00;;;;;;;2.47;1.40;;;;;;;-1.47;59.57;100376.05;1722606;81;21202;-84
2021/03/24 04:05:33;;;;;;;2.90;1.10;;;;;;;-1.48;59.62;100378.77;1718663;81;21912;-84
2021/03/24 04:08:06;;;;;;;3.67;1.47;;;;;;;-1.45;59.60;100389.84;1690682;81;21203;-84
2021/03/24 04:10:41;;;;;;;6.67;2.07;;;;;;;-1.49;59.46;100390.98;1700890;82;21345;-84
2021/03/24 04:13:09;;;;;;;3.80;1.77;;;;;;;-1.47;59.39;100393.04;1696231;82;21145;-84
2021/03/24 04:15:37;;;;;;;2.87;1.20;;;;;;;-1.45;59.31;100388.98;1656312;84;21373;-85
2021/03/24 04:18:15;;;;;;;3.80;1.87;;;;;;;-1.43;59.57;100393.18;1662138;84;21240;-83
2021/03/24 04:20:47;;;;;;;4.17;1.57;;;;;;;-1.43;59.61;100394.48;1671712;84;21196;-84
2021/03/24 04:23:19;;;;;;;2.17;1.50;;;;;;;-1.44;59.32;100400.64;1659859;84;21366;-85
2021/03/24 04:26:14;;;;;;;2.67;0.93;;;;;;;-1.40;59.20;100401.27;1723663;81;21187;-85
2021/03/24 04:28:46;;;;;;;3.83;2.00;;;;;;;-1.42;59.11;100397.45;1707269;81;21171;-84
2021/03/24 04:31:16;;;;;;;5.97;2.20;;;;;;;-1.38;58.96;100406.73;1714610;80;21150;-83
2021/03/24 04:33:44;;;;;;;2.40;1.50;;;;;;;-1.38;58.96;100416.37;1714448;80;21101;-82
2021/03/24 04:36:25;;;;;;;5.57;2.07;;;;;;;-1.33;59.28;100421.29;1711980;81;21166;-84
2021/03/24 04:38:59;;;;;;;2.10;1.47;;;;;;;-1.35;59.15;100417.95;1731786;81;21179;-85
2021/03/24 04:41:29;;;;;;;3.57;1.77;;;;;;;-1.40;59.18;100411.24;1719751;81;21207;-85
2021/03/24 04:44:08;;;;;;;3.50;2.03;;;;;;;-1.33;59.13;100421.29;1702422;83;21186;-84
2021/03/24 04:46:39;;;;;;;2.83;2.50;;;;;;;-1.41;59.20;100440.97;1736590;81;21131;-85
2021/03/24 04:49:22;;;;;;;5.30;2.30;;;;;;;-1.36;59.26;100435.39;1715135;81;22089;-85
2021/03/24 04:51:53;;;;;;;3.93;2.20;;;;;;;-1.37;59.15;100442.89;1718313;82;21192;-85
2021/03/24 04:54:33;;;;;;;3.30;3.00;;;;;;;-1.34;59.16;100433.98;1694773;83;21182;-85
2021/03/24 04:57:12;;;;;;;3.50;2.20;;;;;;;-1.28;58.75;100443.55;1727558;80;21587;-84
2021/03/24 04:59:45;;;;;;;3.03;1.67;;;;;;;-1.35;58.97;100443.62;1676174;84;21223;-85
2021/03/24 05:02:26;;;;;;;2.93;2.40;;;;;;;-1.29;58.80;100435.81;1730944;81;21103;-83
2021/03/24 05:05:20;;;;;;;2.37;1.80;;;;;;;-1.28;58.71;100435.70;1676491;81;21124;-84
2021/03/24 05:08:04;;;;;;;8.13;2.13;;;;;;;-1.21;58.45;100442.62;1696509;82;21309;-86
2021/03/24 05:10:35;;;;;;;3.62;1.77;;;;;;;-1.17;58.50;100444.07;1718789;81;21301;-86
2021/03/24 06:38:25;;;;;;;;;;;;;;;;;;;;;
2021/03/24 06:41:15;;;;;;;6.33;3.90;;;;;;;-0.44;53.22;100255.02;1671862;81;21224;-93
2021/03/24 06:45:03;;;;;;;;;;;;;;;;;;;;;
2021/03/24 06:48:51;;;;;;;;;;;;;;;;;;;;;
2021/03/24 06:52:57;;;;;;;;;;;;;;;;;;;;;
2021/03/24 06:55:46;;;;;;;2.93;2.33;;;;;;;2.09;50.09;100500.48;1792638;77;21749;-95
2021/03/24 06:59:37;;;;;;;5.33;3.03;;;;;;;1.83;51.00;100513.18;1706836;82;21285;-93
2021/03/24 07:57:01;;;;;;;4.00;3.30;;;;;;;2.52;49.36;100541.11;1771862;76;21352;-93
2021/03/24 08:00:20;;;;;;;3.40;3.10;;;;;;;2.60;48.94;100538.27;1743523;77;22959;-91
2021/03/24 08:02:56;;;;;;;3.90;3.60;;;;;;;2.61;49.00;100530.74;1712456;80;21264;-90
2021/03/24 08:06:03;;;;;;;4.93;3.10;;;;;;;2.45;49.39;100506.20;1726846;80;21446;-85
2021/03/24 08:08:41;;;;;;;6.03;3.63;;;;;;;2.72;49.36;100542.50;1762108;80;21678;-86
2021/03/24 08:11:29;;;;;;;3.33;3.03;;;;;;;2.71;49.19;100552.66;1749984;80;21215;-89
2021/03/24 08:14:08;;;;;;;3.67;3.37;;;;;;;2.75;48.90;100542.24;1748945;80;21558;-87
2021/03/24 08:16:49;;;;;;;4.33;3.22;;;;;;;2.80;49.25;100532.13;1760889;81;21160;-87
2021/03/24 08:19:40;;;;;;;3.27;2.97;;;;;;;2.91;49.21;100535.97;1745851;80;21357;-87
2021/03/24 08:22:34;;;;;;;4.50;3.03;;;;;;;2.63;48.72;100478.31;1731839;81;21167;-89
2021/03/24 08:25:38;;;;;;;4.17;3.77;;;;;;;2.96;49.30;100540.86;1735335;81;21394;-87
2021/03/24 08:28:48;;;;;;;4.23;3.47;;;;;;;3.05;49.05;100551.05;1724227;81;21219;-88
2021/03/24 08:31:45;;;;;;;4.13;3.20;;;;;;;3.14;49.05;100545.47;1724491;81;21286;-87
2021/03/24 08:34:53;;;;;;;3.50;3.20;;;;;;;3.13;49.25;100548.59;1737687;81;21068;-88
2021/03/24 08:37:44;;;;;;;3.30;3.05;;;;;;;3.15;48.72;100550.61;1701341;81;21192;-89
2021/03/24 08:40:52;;;;;;;5.03;3.60;;;;;;;3.00;49.13;100515.09;1736634;81;21805;-88
2021/03/24 08:43:35;;;;;;;4.40;3.63;;;;;;;3.33;49.21;100549.45;1733449;81;21176;-87
2021/03/24 08:46:36;;;;;;;5.13;3.83;;;;;;;3.42;48.51;100574.98;1758785;80;21473;-87
2021/03/24 08:52:11;;;;;;;4.70;4.00;;;;;;;3.60;48.26;100544.85;1758220;80;23076;-89
2021/03/24 08:55:17;;;;;;;4.70;4.30;;;;;;;3.61;48.27;100547.00;1749630;81;21335;-92
2021/03/24 08:58:17;;;;;;;6.47;4.03;;;;;;;3.34;48.13;100529.23;1649006;85;21199;-87
2021/03/24 09:01:02;;;;;;;4.30;3.90;;;;;;;3.60;47.88;100554.54;1648107;85;21126;-88
2021/03/24 09:04:33;;;;;;;6.30;3.83;;;;;;;3.52;48.54;100547.32;1592516;88;21230;-87
2021/03/24 09:07:44;;;;;;;5.23;4.47;;;;;;;3.47;48.93;100550.88;1639780;86;21353;-87
2021/03/24 09:10:22;;;;;;;7.23;4.33;;;;;;;3.48;48.95;100553.38;1628215;86;22238;-86
2021/03/24 09:13:15;;;;;;;4.90;4.37;;;;;;;3.51;48.63;100546.99;1618777;85;21251;-88
2021/03/24 09:16:08;;;;;;;3.83;3.57;;;;;;;3.35;48.52;100509.80;1597543;87;21244;-87
2021/03/24 09:19:05;;;;;;;4.50;4.10;;;;;;;3.66;48.67;100552.20;1623932;87;21336;-86
2021/03/24 09:22:17;;;;;;;;;;;;;;;;;;;;;
2021/03/24 09:25:28;;;;;;;5.27;4.77;;;;;;;4.04;48.35;100548.38;1772214;78;28496;-86
2021/03/24 09:28:42;;;;;;;5.40;4.77;;;;;;;4.12;47.32;100562.17;1745272;80;21785;-86
2021/03/24 09:31:17;;;;;;;6.23;4.67;;;;;;;4.12;47.09;100564.32;1735225;80;21692;-86
2021/03/24 09:33:50;;;;;;;5.85;5.12;;;;;;;4.09;47.17;100558.02;1742689;80;21382;-87
2021/03/24 09:36:40;;;;;;;6.23;5.23;;;;;;;4.06;47.51;100607.09;1723653;82;21172;-90
2021/03/24 09:39:28;;;;;;;5.93;4.40;;;;;;;4.05;47.87;100553.52;1714626;82;21772;-88
2021/03/24 09:42:41;;;;;;;5.33;4.83;;;;;;;4.08;47.83;100553.21;1709363;82;21174;-87
2021/03/24 09:45:18;;;;;;;5.43;4.93;;;;;;;4.15;47.67;100548.71;1698879;81;21108;-87
2021/03/24 09:48:08;;;;;;;6.80;5.40;;;;;;;4.24;47.62;100545.23;1683160;83;21208;-88
2021/03/24 09:50:59;;;;;;;4.77;4.40;;;;;;;4.28;46.96;100536.05;1668342;83;21252;-87
2021/03/24 09:53:28;;;;;;;4.23;3.70;;;;;;;4.18;46.35;100545.31;1683493;83;21184;-89
2021/03/24 09:56:07;;;;;;;4.97;4.57;;;;;;;4.14;46.97;100578.70;1682777;83;21641;-89
2021/03/24 09:59:03;;;;;;;6.30;2.87;;;;;;;4.15;46.99;100577.23;1655385;85;22335;-87
2021/03/24 10:02:02;;;;;;;5.70;4.73;;;;;;;4.19;46.66;100554.05;1682576;83;21072;-87
2021/03/24 10:04:49;;;;;;;4.70;4.03;;;;;;;4.26;46.49;100543.28;1662106;83;21219;-87
2021/03/24 10:07:23;;;;;;;4.13;3.83;;;;;;;4.33;46.28;100548.80;1680391;83;21336;-86
2021/03/24 10:10:00;;;;;;;;;;;;;;;4.38;45.46;100551.36;1657671;83;21341;-87
2021/03/24 10:12:57;;;;;;;3.80;3.50;;;;;;;4.45;45.59;100561.70;1703759;80;23074;-86
2021/03/24 10:15:34;;;;;;;5.03;4.10;;;;;;;4.40;45.91;100553.36;1683912;84;21205;-88
2021/03/24 10:18:34;;;;;;;4.40;4.10;;;;;;;4.44;45.02;100569.25;1683110;82;21474;-86
2021/03/24 10:21:16;;;;;;;6.43;4.30;;;;;;;4.41;44.68;100557.69;1686271;82;21231;-86
2021/03/24 10:23:56;;;;;;;3.77;3.47;;;;;;;4.39;45.04;100568.87;1701961;82;22021;-86
2021/03/24 10:26:45;;;;;;;3.90;3.40;;;;;;;4.45;45.09;100544.53;1691890;81;21228;-90
2021/03/24 10:29:17;;;;;;;3.37;3.07;;;;;;;4.55;45.09;100566.94;1698105;81;21182;-83
2021/03/24 10:31:56;;;;;;;2.97;2.73;;;;;;;4.68;43.54;100565.30;1697346;82;21270;-91
2021/03/24 10:34:33;;;;;;;2.50;2.40;;;;;;;4.72;42.92;100553.97;1701944;81;21072;-87
2021/03/24 10:37:29;;;;;;;3.00;2.70;;;;;;;4.76;42.31;100559.30;1688553;83;21782;-92
2021/03/24 10:40:04;;;;;;;6.73;2.43;;;;;;;4.82;43.25;100546.36;1695340;83;21635;-85
2021/03/24 10:43:21;;;;;;;;;;;;;;;;;;;;;
2021/03/24 10:58:02;;;;;;;2.83;2.50;;;;;;;4.27;44.78;100533.88;1791697;77;22550;-89
2021/03/24 11:00:34;;;;;;;2.80;2.50;;;;;;;4.26;44.09;100555.16;1726134;81;21101;-87
2021/03/24 11:03:24;;;;;;;3.03;1.87;;;;;;;4.44;44.66;100552.59;1715417;81;21209;-85
2021/03/24 11:06:14;;;;;;;2.70;1.80;;;;;;;4.57;43.71;100553.11;1708317;81;21417;-88
2021/03/24 11:08:47;;;;;;;2.60;2.40;;;;;;;4.67;43.60;100549.96;1723209;81;21303;-87
2021/03/24 11:11:28;;;;;;;1.93;1.83;;;;;;;4.76;43.26;100548.73;1728710;80;21692;-87
2021/03/24 11:14:01;;;;;;;2.53;2.30;;;;;;;4.73;42.57;100534.03;1711586;81;21306;-87
2021/03/24 11:16:42;;;;;;;2.83;1.45;;;;;;;4.67;42.15;100539.86;1712800;81;21319;-88
2021/03/24 11:19:23;;;;;;;2.00;1.90;;;;;;;4.66;41.94;100538.22;1720481;81;21208;-86
2021/03/24 11:22:15;;;;;;;1.20;1.13;;;;;;;4.71;41.70;100543.05;1721776;81;21173;-86
2021/03/24 11:25:04;;;;;;;3.33;1.87;;;;;;;4.63;41.47;100535.39;1680591;83;21763;-85
2021/03/24 11:27:53;;;;;;;;;;;;;;;4.65;40.91;100531.27;1675478;84;21271;-88
2021/03/24 11:30:40;;;;;;;1.37;1.27;;;;;;;4.63;40.74;100539.81;1698444;83;20211;-87
2021/03/24 11:33:38;;;;;;;2.90;1.60;;;;;;;4.64;41.37;100534.39;1678892;83;21222;-85
2021/03/24 11:36:20;;;;;;;3.95;1.72;;;;;;;4.79;41.79;100523.38;1649926;85;21342;-88
2021/03/24 11:42:14;;;;;;;4.53;1.33;;;;;;;5.11;39.78;100529.52;1755185;78;22965;-88
2021/03/24 11:44:46;;;;;;;0.90;0.90;;;;;;;4.97;39.31;100555.95;1723510;79;21078;-87
2021/03/24 11:47:37;;;;;;;0.93;0.93;;;;;;;4.93;38.83;100567.77;1699186;82;21366;-88
2021/03/24 11:50:22;;;;;;;1.83;1.40;;;;;;;4.93;38.80;100547.95;1704549;82;21280;-90
2021/03/24 11:53:19;;;;;;;0.93;0.80;;;;;;;4.94;38.60;100522.39;1691150;82;21207;-91
2021/03/24 11:56:06;;;;;;;3.10;1.00;;;;;;;4.97;38.62;100521.62;1652862;83;21272;-89
2021/03/24 11:59:26;;;;;;;3.40;1.57;;;;;;;5.05;38.45;100500.56;1632669;85;21195;-88
2021/03/24 12:02:24;;;;;;;0.85;0.60;;;;;;;5.12;37.65;100513.99;1640938;85;21133;-90
2021/03/24 12:05:34;;;;;;;1.07;0.70;;;;;;;5.14;37.27;100538.48;1790961;78;23004;-91
2021/03/24 12:08:44;;;;;;;1.40;1.30;;;;;;;5.06;37.43;100537.88;1709787;81;21206;-91
2021/03/24 12:11:29;;;;;;;0.80;0.80;;;;;;;5.04;37.71;100541.66;1683273;82;21186;-88
2021/03/24 12:14:26;;;;;;;;;;;;;;;;;;;;;
